createdAt,value
2022-08-18T00:01:56.162Z,8.60
2022-08-18T00:04:35.260Z,9.38
2022-08-18T00:07:03.435Z,9.82
2022-08-18T00:09:32.665Z,9.10
2022-08-18T00:12:02.102Z,8.25
2022-08-18T00:14:29.524Z,8.60
2022-08-18T00:16:56.767Z,8.02
2022-08-18T00:19:47.158Z,7.57
2022-08-18T00:22:15.371Z,8.45
2022-08-18T00:24:48.336Z,8.82
2022-08-18T00:27:23.567Z,8.60
2022-08-18T00:29:52.094Z,8.90
2022-08-18T00:32:24.003Z,8.25
2022-08-18T00:34:51.394Z,8.75
2022-08-18T00:37:18.686Z,8.38
2022-08-18T00:39:46.612Z,8.77
2022-08-18T00:42:27.331Z,8.68
2022-08-18T00:44:57.863Z,8.40
2022-08-18T00:47:41.091Z,8.48
2022-08-18T00:50:15.067Z,8.27
2022-08-18T00:52:43.387Z,8.23
2022-08-18T00:55:11.132Z,7.65
2022-08-18T00:57:38.575Z,8.35
2022-08-18T01:00:11.558Z,8.13
2022-08-18T01:02:44.930Z,7.97
2022-08-18T01:05:18.706Z,8.20
2022-08-18T01:07:47.225Z,8.25
2022-08-18T01:10:19.433Z,9.05
2022-08-18T01:12:47.772Z,8.43
2022-08-18T01:15:28.003Z,7.80
2022-08-18T01:18:16.599Z,9.18
2022-08-18T01:21:15.263Z,8.20
2022-08-18T01:23:42.843Z,8.60
2022-08-18T01:26:10.118Z,7.72
2022-08-18T01:28:39.746Z,8.00
2022-08-18T01:31:07.485Z,8.18
2022-08-18T01:33:37.226Z,8.30
2022-08-18T01:36:16.612Z,8.50
2022-08-18T01:38:45.027Z,7.78
2022-08-18T01:41:27.012Z,7.88
2022-08-18T01:43:58.711Z,7.43
2022-08-18T01:46:26.655Z,8.43
2022-08-18T01:48:53.918Z,7.78
2022-08-18T01:51:39.485Z,7.47
2022-08-18T01:54:07.861Z,7.38
2022-08-18T01:56:36.884Z,8.80
2022-08-18T01:59:06.258Z,8.75
2022-08-18T02:01:36.905Z,8.32
2022-08-18T02:06:52.453Z,8.55
2022-08-18T02:09:23.661Z,8.48
2022-08-18T02:11:52.976Z,8.20
2022-08-18T02:14:27.068Z,7.78
2022-08-18T02:17:01.418Z,8.95
2022-08-18T02:19:33.923Z,7.93
2022-08-18T02:22:01.188Z,8.38
2022-08-18T02:24:28.403Z,8.45
2022-08-18T02:26:57.388Z,7.78
2022-08-18T02:29:24.597Z,8.38
2022-08-18T02:31:51.831Z,8.75
2022-08-18T02:34:19.207Z,8.55
2022-08-18T02:36:46.568Z,8.45
2022-08-18T02:39:13.807Z,8.48
2022-08-18T02:41:41.201Z,8.40
2022-08-18T02:44:08.908Z,8.60
2022-08-18T02:46:36.621Z,7.68
2022-08-18T02:49:04.707Z,8.57
2022-08-18T02:51:32.200Z,8.38
2022-08-18T02:53:59.747Z,7.97
2022-08-18T02:56:35.743Z,7.72
2022-08-18T02:59:15.624Z,8.23
2022-08-18T03:01:45.287Z,8.65
2022-08-18T03:04:15.585Z,7.80
2022-08-18T03:06:43.197Z,7.45
2022-08-18T03:09:11.983Z,8.57
2022-08-18T03:11:39.195Z,8.25
2022-08-18T03:14:07.362Z,7.60
2022-08-18T03:16:40.611Z,8.10
2022-08-18T03:19:20.781Z,8.05
2022-08-18T03:21:48.764Z,7.63
2022-08-18T03:24:22.657Z,7.90
2022-08-18T03:26:51.417Z,7.72
2022-08-18T03:29:18.660Z,8.02
2022-08-18T03:31:45.847Z,8.07
2022-08-18T03:34:13.655Z,7.90
2022-08-18T03:36:42.048Z,7.70
2022-08-18T03:39:11.417Z,8.73
2022-08-18T03:41:59.919Z,7.68
2022-08-18T03:44:34.343Z,8.30
2022-08-18T03:47:04.399Z,7.78
2022-08-18T03:49:33.788Z,8.27
2022-08-18T03:52:01.727Z,8.32
2022-08-18T03:54:29.849Z,8.75
2022-08-18T03:56:57.060Z,8.20
2022-08-18T03:59:25.768Z,8.30
2022-08-18T04:01:55.024Z,8.38
2022-08-18T04:04:23.971Z,8.25
2022-08-18T04:06:54.210Z,8.30
2022-08-18T04:09:22.128Z,8.00
2022-08-18T04:11:49.777Z,8.60
2022-08-18T04:14:18.374Z,7.78
2022-08-18T04:16:46.191Z,7.70
2022-08-18T04:19:14.136Z,7.60
2022-08-18T04:21:52.052Z,7.68
2022-08-18T04:24:19.443Z,8.13
2022-08-18T04:26:48.334Z,8.23
2022-08-18T04:29:17.518Z,8.15
2022-08-18T04:31:44.956Z,8.15
2022-08-18T04:34:12.495Z,7.68
2022-08-18T04:36:39.879Z,8.02
2022-08-18T04:39:08.719Z,7.65
2022-08-18T04:41:36.638Z,8.23
2022-08-18T04:44:05.936Z,7.43
2022-08-18T04:46:36.162Z,7.53
2022-08-18T04:49:03.895Z,7.85
2022-08-18T04:52:36.669Z,7.00
2022-08-18T04:54:18.860Z,6.85
2022-08-18T04:56:46.195Z,6.80
2022-08-18T04:59:14.087Z,8.02
2022-08-18T05:01:42.650Z,7.30
2022-08-18T05:04:10.427Z,7.63
2022-08-18T05:06:37.704Z,6.95
2022-08-18T05:09:07.156Z,7.22
2022-08-18T05:11:34.690Z,7.50
2022-08-18T05:14:10.985Z,7.40
2022-08-18T05:16:48.197Z,7.55
2022-08-18T05:19:19.389Z,7.70
2022-08-18T05:21:50.882Z,7.18
2022-08-18T05:24:19.215Z,7.35
2022-08-18T05:26:46.750Z,7.35
2022-08-18T05:29:18.938Z,7.03
2022-08-18T05:31:46.892Z,7.65
2022-08-18T05:34:14.264Z,6.45
2022-08-18T05:36:46.572Z,7.25
2022-08-18T05:39:19.911Z,6.82
2022-08-18T05:42:10.365Z,7.18
2022-08-18T05:44:42.466Z,6.75
2022-08-18T05:47:14.732Z,6.93
2022-08-18T05:49:43.897Z,7.15
2022-08-18T05:52:15.341Z,6.07
2022-08-18T05:55:05.222Z,6.10
2022-08-18T05:57:33.762Z,5.70
2022-08-18T06:00:03.071Z,5.80
2022-08-18T06:02:39.975Z,5.55
2022-08-18T06:05:11.893Z,5.53
2022-08-18T06:07:43.729Z,5.70
2022-08-18T06:10:11.424Z,5.70
2022-08-18T06:12:47.132Z,6.07
2022-08-18T06:15:33.460Z,6.55
2022-08-18T06:18:00.791Z,5.70
2022-08-18T06:20:54.604Z,5.88
2022-08-18T06:23:21.867Z,5.93
2022-08-18T06:25:58.211Z,5.72
2022-08-18T06:28:27.207Z,6.55
2022-08-18T06:30:58.555Z,6.40
2022-08-18T06:33:32.135Z,6.50
2022-08-18T06:36:14.336Z,6.60
2022-08-18T06:38:52.926Z,6.18
2022-08-18T06:41:40.746Z,6.55
2022-08-18T06:44:17.691Z,7.05
2022-08-18T06:46:53.829Z,6.50
2022-08-18T06:49:32.240Z,6.40
2022-08-18T06:51:59.416Z,6.55
2022-08-18T06:54:28.020Z,6.95
2022-08-18T06:56:56.761Z,6.35
2022-08-18T06:59:34.355Z,6.93
2022-08-18T07:02:23.434Z,7.03
2022-08-18T07:05:05.878Z,7.30
2022-08-18T07:07:39.892Z,6.32
2022-08-18T07:10:29.226Z,6.30
2022-08-18T07:13:08.966Z,6.22
2022-08-18T07:18:06.436Z,7.00
2022-08-18T07:20:41.871Z,6.72
2022-08-18T07:23:10.161Z,6.72
2022-08-18T07:25:43.472Z,6.88
2022-08-18T07:28:29.526Z,7.53
2022-08-18T07:31:16.859Z,7.20
2022-08-18T07:33:48.564Z,7.00
2022-08-18T07:36:17.126Z,7.28
2022-08-18T07:38:49.204Z,6.93
2022-08-18T07:41:20.633Z,6.93
2022-08-18T07:43:54.849Z,6.22
2022-08-18T07:46:29.596Z,6.32
2022-08-18T07:48:58.736Z,6.45
2022-08-18T07:51:36.928Z,6.65
2022-08-18T07:54:04.703Z,6.63
2022-08-18T07:56:34.938Z,6.78
2022-08-18T07:59:02.113Z,6.20
2022-08-18T08:01:33.706Z,7.05
2022-08-18T08:04:10.178Z,7.03
2022-08-18T08:07:24.336Z,6.65
2022-08-18T08:10:11.542Z,6.25
2022-08-18T08:12:43.703Z,7.15
2022-08-18T08:15:13.966Z,6.13
2022-08-18T08:17:54.037Z,6.75
2022-08-18T08:20:34.116Z,6.45
2022-08-18T08:25:47.785Z,6.32
2022-08-18T08:28:24.451Z,6.22
2022-08-18T08:31:09.058Z,6.03
2022-08-18T08:33:51.451Z,6.60
2022-08-18T08:36:25.679Z,6.40
2022-08-18T08:38:55.948Z,6.78
2022-08-18T08:41:44.669Z,6.03
2022-08-18T08:44:14.960Z,6.45
2022-08-18T08:46:55.409Z,6.28
2022-08-18T08:49:28.302Z,6.68
2022-08-18T08:51:58.123Z,6.40
2022-08-18T08:54:31.879Z,6.40
2022-08-18T08:57:01.113Z,6.10
2022-08-18T08:59:28.379Z,6.28
2022-08-18T09:02:37.838Z,6.35
2022-08-18T09:05:09.946Z,6.10
2022-08-18T09:07:46.212Z,6.18
2022-08-18T09:43:20.272Z,5.85
2022-08-18T09:45:47.642Z,4.55
2022-08-18T09:48:20.767Z,4.70
2022-08-18T09:51:19.262Z,4.63
2022-08-18T09:53:46.514Z,4.70
2022-08-18T09:56:37.641Z,4.78
2022-08-18T09:59:34.312Z,4.90
2022-08-18T10:02:03.902Z,4.53
2022-08-18T10:04:33.513Z,4.43
2022-08-18T10:07:19.628Z,4.50
2022-08-18T10:09:47.707Z,4.57
2022-08-18T10:12:24.261Z,4.70
2022-08-18T10:15:09.876Z,4.43
2022-08-18T10:17:42.038Z,4.80
2022-08-18T10:20:26.324Z,4.78
2022-08-18T10:22:55.185Z,4.20
2022-08-18T10:25:42.047Z,4.80
2022-08-18T10:28:11.923Z,4.40
2022-08-18T10:30:56.790Z,4.95
2022-08-18T10:33:50.798Z,5.38
2022-08-18T10:36:40.083Z,4.60
2022-08-18T10:39:12.303Z,4.95
2022-08-18T10:41:45.721Z,5.07
2022-08-18T10:44:28.284Z,4.72
2022-08-18T10:46:58.721Z,4.90
2022-08-18T10:49:27.470Z,4.60
2022-08-18T10:51:59.833Z,4.80
2022-08-18T10:54:51.978Z,4.85
2022-08-18T10:57:42.098Z,5.05
2022-08-18T11:00:16.772Z,5.30
2022-08-18T11:02:44.060Z,5.22
2022-08-18T11:05:14.903Z,4.63
2022-08-18T11:07:44.975Z,4.90
2022-08-18T11:10:32.588Z,5.03
2022-08-18T11:13:16.624Z,4.60
2022-08-18T11:15:57.914Z,5.35
2022-08-18T11:18:30.191Z,5.28
2022-08-18T11:21:16.096Z,4.75
2022-08-18T11:23:43.432Z,4.95
2022-08-18T11:26:15.375Z,4.78
2022-08-18T11:28:45.952Z,5.07
2022-08-18T11:31:14.361Z,4.88
2022-08-18T11:33:42.203Z,4.88
2022-08-18T11:36:10.296Z,4.50
2022-08-18T11:38:39.441Z,5.15
2022-08-18T11:41:17.821Z,5.28
2022-08-18T11:43:46.759Z,4.80
2022-08-18T11:46:16.404Z,5.03
2022-08-18T11:51:41.274Z,5.10
2022-08-18T11:54:15.487Z,4.65
2022-08-18T11:56:44.253Z,5.22
2022-08-18T11:59:52.244Z,5.40
2022-08-18T12:02:18.170Z,4.85
2022-08-18T12:04:46.095Z,4.80
2022-08-18T12:07:15.318Z,5.18
2022-08-18T12:10:17.093Z,5.28
2022-08-18T12:12:35.962Z,4.68
2022-08-18T12:15:09.134Z,4.80
2022-08-18T12:17:42.310Z,5.20
2022-08-18T12:22:57.915Z,5.38
2022-08-18T12:25:25.836Z,4.97
2022-08-18T12:27:54.038Z,4.90
2022-08-18T12:30:21.441Z,5.40
2022-08-18T12:32:55.747Z,5.45
2022-08-18T12:35:23.689Z,4.88
2022-08-18T12:38:04.903Z,5.60
2022-08-18T12:40:40.508Z,4.72
2022-08-18T12:43:07.773Z,4.97
2022-08-18T12:45:37.477Z,4.97
2022-08-18T12:50:42.646Z,4.97
2022-08-18T12:53:17.837Z,5.32
2022-08-18T12:55:58.209Z,4.70
2022-08-18T12:58:25.437Z,4.57
2022-08-18T13:00:52.764Z,5.13
2022-08-18T13:03:20.271Z,4.85
2022-08-18T13:05:47.738Z,5.60
2022-08-18T13:08:27.692Z,4.80
2022-08-18T13:11:13.251Z,4.65
2022-08-18T13:13:42.755Z,4.63
2022-08-18T13:16:10.402Z,4.18
2022-08-18T13:18:43.811Z,4.50
2022-08-18T13:21:12.507Z,4.55
2022-08-18T13:23:40.296Z,4.93
2022-08-18T13:26:09.545Z,4.25
2022-08-18T13:28:54.624Z,4.50
2022-08-18T13:31:26.044Z,4.32
2022-08-18T13:33:57.184Z,4.32
2022-08-18T13:36:28.874Z,4.40
2022-08-18T13:38:56.858Z,4.20
2022-08-18T13:43:58.285Z,4.72
2022-08-18T13:46:31.252Z,4.10
2022-08-18T13:49:03.286Z,4.50
2022-08-18T13:51:31.162Z,4.35
2022-08-18T13:54:26.608Z,4.90
2022-08-18T13:56:52.131Z,4.03
2022-08-18T13:59:20.699Z,4.38
2022-08-18T14:01:52.398Z,3.97
2022-08-18T14:04:21.187Z,4.20
2022-08-18T14:06:57.275Z,4.38
2022-08-18T14:09:35.730Z,4.30
2022-08-18T14:12:28.185Z,4.47
2022-08-18T14:14:58.351Z,4.53
2022-08-18T14:17:26.248Z,4.43
2022-08-18T14:20:15.440Z,4.78
2022-08-18T14:23:07.634Z,4.15
2022-08-18T14:25:53.295Z,4.38
2022-08-18T14:28:24.782Z,4.10
2022-08-18T14:30:54.297Z,3.92
2022-08-18T14:33:34.280Z,4.73
2022-08-18T14:36:05.827Z,4.15
2022-08-18T14:38:35.363Z,4.57
2022-08-18T14:41:04.942Z,4.20
2022-08-18T14:43:55.623Z,4.75
2022-08-18T14:46:23.776Z,4.30
2022-08-18T14:48:57.218Z,4.35
2022-08-18T14:51:27.143Z,4.40
2022-08-18T14:53:55.688Z,4.88
2022-08-18T14:56:24.446Z,4.40
2022-08-18T14:58:56.136Z,4.80
2022-08-18T15:01:26.636Z,4.72
2022-08-18T15:03:54.500Z,4.45
2022-08-18T15:06:26.940Z,4.05
2022-08-18T15:08:56.943Z,4.30
2022-08-18T15:11:24.653Z,3.75
2022-08-18T15:13:55.123Z,3.88
2022-08-18T15:16:26.900Z,4.25
2022-08-18T15:18:58.985Z,4.40
2022-08-18T15:21:44.848Z,4.22
2022-08-18T15:24:30.790Z,4.00
2022-08-18T15:27:06.016Z,3.70
2022-08-18T15:29:37.370Z,3.72
2022-08-18T15:32:10.375Z,3.17
2022-08-18T15:34:46.794Z,4.10
2022-08-18T15:37:19.908Z,4.50
2022-08-18T15:39:51.676Z,3.60
2022-08-18T15:42:19.463Z,3.80
2022-08-18T15:44:47.314Z,3.53
2022-08-18T15:47:21.078Z,3.40
2022-08-18T15:49:48.623Z,3.40
2022-08-18T15:52:17.683Z,3.75
2022-08-18T15:54:50.351Z,3.42
2022-08-18T15:57:34.279Z,3.42
2022-08-18T16:00:06.677Z,3.42
2022-08-18T16:02:34.574Z,3.33
2022-08-18T16:05:10.228Z,3.65
2022-08-18T16:07:41.322Z,3.53
2022-08-18T16:10:12.711Z,4.15
2022-08-18T16:12:45.594Z,3.92
2022-08-18T16:17:47.663Z,3.80
2022-08-18T16:20:15.128Z,3.70
2022-08-18T16:22:42.449Z,3.83
2022-08-18T16:25:10.022Z,4.00
2022-08-18T16:27:41.338Z,4.03
2022-08-18T16:30:09.537Z,3.65
2022-08-18T16:32:36.905Z,3.70
2022-08-18T16:35:04.819Z,3.58
2022-08-18T16:37:32.017Z,4.10
2022-08-18T16:39:59.432Z,3.40
2022-08-18T16:42:29.897Z,3.95
2022-08-18T16:47:24.302Z,3.97
2022-08-18T16:49:52.866Z,4.00
2022-08-18T16:52:27.310Z,4.35
2022-08-18T16:54:58.057Z,3.83
2022-08-18T16:57:54.065Z,3.75
2022-08-18T17:00:41.627Z,4.05
2022-08-18T17:03:28.310Z,3.58
2022-08-18T17:06:02.994Z,4.00
2022-08-18T17:08:34.126Z,3.65
2022-08-18T17:11:05.961Z,4.15
2022-08-18T17:13:33.750Z,4.00
2022-08-18T17:16:01.058Z,3.60
2022-08-18T17:18:30.512Z,3.38
2022-08-18T17:20:58.187Z,3.55
2022-08-18T17:23:26.922Z,4.28
2022-08-18T17:25:54.326Z,3.97
2022-08-18T17:28:26.181Z,3.67
2022-08-18T17:30:53.797Z,3.97
2022-08-18T17:33:26.988Z,4.03
2022-08-18T17:35:54.386Z,4.13
2022-08-18T17:38:27.022Z,3.80
2022-08-18T17:40:56.458Z,3.83
2022-08-18T17:43:25.013Z,3.75
2022-08-18T17:46:05.158Z,3.63
2022-08-18T17:48:38.878Z,4.13
2022-08-18T17:51:34.690Z,4.10
2022-08-18T17:54:22.041Z,3.60
2022-08-18T17:56:52.804Z,4.07
2022-08-18T17:59:46.054Z,3.90
2022-08-18T18:02:28.463Z,3.80
2022-08-18T18:04:58.741Z,4.35
2022-08-18T18:07:26.015Z,4.07
2022-08-18T18:09:57.011Z,3.70
2022-08-18T18:12:26.591Z,3.80
2022-08-18T18:14:53.810Z,3.88
2022-08-18T18:17:25.267Z,4.30
2022-08-18T18:19:57.246Z,3.63
2022-08-18T18:22:26.721Z,3.78
2022-08-18T18:24:56.842Z,3.42
2022-08-18T18:27:26.508Z,3.95
2022-08-18T18:30:02.239Z,3.30
2022-08-18T18:32:32.303Z,3.83
2022-08-18T18:35:05.723Z,4.07
2022-08-18T18:37:33.301Z,4.05
2022-08-18T18:40:02.567Z,3.97
2022-08-18T18:42:32.023Z,3.80
2022-08-18T18:45:00.730Z,3.70
2022-08-18T18:47:34.062Z,3.83
2022-08-18T18:50:08.073Z,3.72
2022-08-18T18:52:44.739Z,3.88
2022-08-18T18:55:16.629Z,3.78
2022-08-18T18:57:56.683Z,3.78
2022-08-18T19:00:44.642Z,3.80
2022-08-18T19:03:29.135Z,3.40
2022-08-18T19:06:14.157Z,3.85
2022-08-18T19:08:56.648Z,3.83
2022-08-18T19:11:23.951Z,3.63
2022-08-18T19:13:56.466Z,4.20
2022-08-18T19:16:28.061Z,3.70
2022-08-18T19:19:35.555Z,4.28
2022-08-18T19:22:05.277Z,4.07
2022-08-18T19:24:38.720Z,4.15
2022-08-18T19:27:07.931Z,4.13
2022-08-18T19:29:41.601Z,4.05
2022-08-18T19:32:16.413Z,4.20
2022-08-18T19:34:52.718Z,3.78
2022-08-18T19:37:27.545Z,3.70
2022-08-18T19:40:03.016Z,4.20
2022-08-18T19:42:42.282Z,4.15
2022-08-18T19:45:21.679Z,4.20
2022-08-18T19:48:03.050Z,4.63
2022-08-18T19:50:30.332Z,3.70
2022-08-18T19:53:16.202Z,4.05
2022-08-18T19:55:47.450Z,4.00
2022-08-18T19:58:15.374Z,4.03
2022-08-18T20:00:59.946Z,4.70
2022-08-18T20:03:48.869Z,3.65
2022-08-18T20:06:34.584Z,3.78
2022-08-18T20:09:17.660Z,3.40
2022-08-18T20:11:48.352Z,4.20
2022-08-18T20:14:18.910Z,3.40
2022-08-18T20:17:04.763Z,4.07
2022-08-18T20:19:44.298Z,3.50
2022-08-18T20:22:27.752Z,3.50
2022-08-18T20:25:05.600Z,3.45
2022-08-18T20:27:36.093Z,3.55
2022-08-18T20:30:22.242Z,3.78
2022-08-18T20:33:08.166Z,4.15
2022-08-18T20:35:46.993Z,3.78
2022-08-18T20:38:19.077Z,3.78
2022-08-18T20:40:47.985Z,3.78
2022-08-18T20:43:34.510Z,4.35
2022-08-18T20:46:24.455Z,4.30
2022-08-18T20:48:51.823Z,3.78
2022-08-18T20:51:26.537Z,4.05
2022-08-18T20:54:03.426Z,4.07
2022-08-18T20:56:32.093Z,3.85
2022-08-18T20:59:16.739Z,4.18
2022-08-18T21:01:43.922Z,4.22
2022-08-18T21:04:11.346Z,4.25
2022-08-18T21:06:44.538Z,4.28
2022-08-18T21:09:17.753Z,4.30
2022-08-18T21:11:46.340Z,4.30
2022-08-18T21:14:23.631Z,4.43
2022-08-18T21:16:54.778Z,4.03
2022-08-18T21:19:27.531Z,4.60
2022-08-18T21:22:00.402Z,4.47
2022-08-18T21:24:28.325Z,4.32
2022-08-18T21:26:57.213Z,4.30
2022-08-18T21:29:24.835Z,4.57
2022-08-18T21:31:53.114Z,4.18
2022-08-18T21:34:41.761Z,4.40
2022-08-18T21:37:13.899Z,4.25
2022-08-18T21:39:48.431Z,4.15
2022-08-18T21:42:24.550Z,4.55
2022-08-18T21:44:54.886Z,4.43
2022-08-18T21:47:23.893Z,4.28
2022-08-18T21:50:00.449Z,4.78
2022-08-18T21:52:29.322Z,4.50
2022-08-18T21:55:06.318Z,4.45
2022-08-18T21:57:52.025Z,4.43
2022-08-18T22:00:24.575Z,4.60
2022-08-18T22:02:52.571Z,4.57
2022-08-18T22:05:27.166Z,4.72
2022-08-18T22:07:54.661Z,4.68
2022-08-18T22:10:47.985Z,4.95
2022-08-18T22:13:41.648Z,4.75
2022-08-18T22:16:29.287Z,4.68
2022-08-18T22:19:11.915Z,4.55
2022-08-18T22:21:46.619Z,5.13
2022-08-18T22:24:21.416Z,4.22
2022-08-18T22:26:48.723Z,4.38
2022-08-18T22:29:15.886Z,4.68
2022-08-18T22:31:43.333Z,4.28
2022-08-18T22:34:10.575Z,4.50
2022-08-18T22:36:40.365Z,4.50
2022-08-18T22:39:09.792Z,4.70
2022-08-18T22:41:37.134Z,4.20
2022-08-18T22:44:05.585Z,4.88
2022-08-18T22:46:33.342Z,4.93
2022-08-18T22:49:01.209Z,4.70
2022-08-18T22:51:29.343Z,4.38
2022-08-18T22:53:56.966Z,5.10
2022-08-18T22:56:35.047Z,4.70
2022-08-18T22:59:13.691Z,4.78
2022-08-18T23:04:11.153Z,4.85
2022-08-18T23:06:38.350Z,5.15
2022-08-18T23:09:05.812Z,5.40
2022-08-18T23:11:33.067Z,4.53
2022-08-18T23:14:01.164Z,4.78
2022-08-18T23:16:31.703Z,4.40
2022-08-18T23:19:01.964Z,5.15
2022-08-18T23:21:35.058Z,5.18
2022-08-18T23:24:04.292Z,5.03
2022-08-18T23:26:31.525Z,5.07
2022-08-18T23:28:58.734Z,5.05
2022-08-18T23:31:25.926Z,4.68
2022-08-18T23:33:53.303Z,4.07
2022-08-18T23:36:20.557Z,4.70
2022-08-18T23:38:47.768Z,5.20
2022-08-18T23:41:16.421Z,5.38
2022-08-18T23:43:48.237Z,5.53
2022-08-18T23:46:22.074Z,5.15
2022-08-18T23:48:53.004Z,4.70
2022-08-18T23:53:47.353Z,4.70
2022-08-18T23:56:14.538Z,4.90
2022-08-18T23:58:43.154Z,5.30
